sensor_id;sensor_type;location;lat;lon;timestamp;temperature;humidity
3860;DHT22;1945;52.036;8.614;2023-02-01T00:00:28;3.70;1.00
3860;DHT22;1945;52.036;8.614;2023-02-01T00:02:55;4.10;1.00
3860;DHT22;1945;52.036;8.614;2023-02-01T00:05:21;4.60;1.00
3860;DHT22;1945;52.036;8.614;2023-02-01T00:07:48;4.60;1.00
3860;DHT22;1945;52.036;8.614;2023-02-01T00:10:15;4.70;1.00
3860;DHT22;1945;52.036;8.614;2023-02-01T00:12:43;4.20;1.00
3860;DHT22;1945;52.036;8.614;2023-02-01T00:15:10;4.30;1.00
3860;DHT22;1945;52.036;8.614;2023-02-01T00:17:37;4.40;1.00
3860;DHT22;1945;52.036;8.614;2023-02-01T00:20:04;3.90;1.00
3860;DHT22;1945;52.036;8.614;2023-02-01T00:22:31;4.60;1.00
3860;DHT22;1945;52.036;8.614;2023-02-01T00:24:58;4.30;1.00
3860;DHT22;1945;52.036;8.614;2023-02-01T00:27:25;4.20;1.00
3860;DHT22;1945;52.036;8.614;2023-02-01T00:29:54;4.30;1.00
3860;DHT22;1945;52.036;8.614;2023-02-01T00:32:20;4.30;1.00
3860;DHT22;1945;52.036;8.614;2023-02-01T00:34:47;3.90;1.00
3860;DHT22;1945;52.036;8.614;2023-02-01T00:37:14;4.40;1.00
3860;DHT22;1945;52.036;8.614;2023-02-01T00:39:40;4.20;1.00
3860;DHT22;1945;52.036;8.614;2023-02-01T00:42:07;4.20;1.00
3860;DHT22;1945;52.036;8.614;2023-02-01T00:44:33;4.30;1.00
3860;DHT22;1945;52.036;8.614;2023-02-01T00:47:02;3.90;1.00
3860;DHT22;1945;52.036;8.614;2023-02-01T00:49:29;3.80;1.00
3860;DHT22;1945;52.036;8.614;2023-02-01T00:51:55;3.90;1.00
3860;DHT22;1945;52.036;8.614;2023-02-01T00:54:22;4.20;1.00
3860;DHT22;1945;52.036;8.614;2023-02-01T00:56:49;4.30;1.00
3860;DHT22;1945;52.036;8.614;2023-02-01T00:59:15;3.70;1.00
3860;DHT22;1945;52.036;8.614;2023-02-01T01:01:42;4.40;1.00
3860;DHT22;1945;52.036;8.614;2023-02-01T01:04:10;4.30;1.00
3860;DHT22;1945;52.036;8.614;2023-02-01T01:06:37;4.70;1.00
3860;DHT22;1945;52.036;8.614;2023-02-01T01:09:06;4.20;1.00
3860;DHT22;1945;52.036;8.614;2023-02-01T01:11:35;4.00;1.00
3860;DHT22;1945;52.036;8.614;2023-02-01T01:14:03;4.40;1.00
3860;DHT22;1945;52.036;8.614;2023-02-01T01:16:31;4.20;1.00
3860;DHT22;1945;52.036;8.614;2023-02-01T01:18:58;4.70;1.00
3860;DHT22;1945;52.036;8.614;2023-02-01T01:21:26;4.70;1.00
3860;DHT22;1945;52.036;8.614;2023-02-01T01:23:54;4.70;1.00
3860;DHT22;1945;52.036;8.614;2023-02-01T01:26:22;4.20;1.00
3860;DHT22;1945;52.036;8.614;2023-02-01T01:28:49;4.30;1.00
3860;DHT22;1945;52.036;8.614;2023-02-01T01:31:17;4.50;1.00
3860;DHT22;1945;52.036;8.614;2023-02-01T01:33:47;3.90;1.00
3860;DHT22;1945;52.036;8.614;2023-02-01T01:36:14;4.60;1.00
3860;DHT22;1945;52.036;8.614;2023-02-01T01:38:42;4.40;1.00
3860;DHT22;1945;52.036;8.614;2023-02-01T01:41:14;3.80;1.00
3860;DHT22;1945;52.036;8.614;2023-02-01T01:43:47;4.60;1.00
3860;DHT22;1945;52.036;8.614;2023-02-01T01:46:16;4.50;1.00
3860;DHT22;1945;52.036;8.614;2023-02-01T01:48:42;3.80;1.00
3860;DHT22;1945;52.036;8.614;2023-02-01T01:51:10;4.00;1.00
3860;DHT22;1945;52.036;8.614;2023-02-01T01:53:44;4.60;1.00
3860;DHT22;1945;52.036;8.614;2023-02-01T01:56:11;4.30;1.00
3860;DHT22;1945;52.036;8.614;2023-02-01T01:58:38;4.70;1.00
3860;DHT22;1945;52.036;8.614;2023-02-01T02:01:05;4.30;1.00
3860;DHT22;1945;52.036;8.614;2023-02-01T02:03:34;4.10;1.00
3860;DHT22;1945;52.036;8.614;2023-02-01T02:06:03;4.40;1.00
3860;DHT22;1945;52.036;8.614;2023-02-01T02:08:33;4.50;1.00
3860;DHT22;1945;52.036;8.614;2023-02-01T02:11:01;4.10;1.00
3860;DHT22;1945;52.036;8.614;2023-02-01T02:13:31;5.00;1.00
3860;DHT22;1945;52.036;8.614;2023-02-01T02:16:08;4.20;1.00
3860;DHT22;1945;52.036;8.614;2023-02-01T02:18:43;4.20;1.00
3860;DHT22;1945;52.036;8.614;2023-02-01T02:21:15;4.70;1.00
3860;DHT22;1945;52.036;8.614;2023-02-01T02:30:09;4.60;1.00
3860;DHT22;1945;52.036;8.614;2023-02-01T02:35:46;4.60;1.00
3860;DHT22;1945;52.036;8.614;2023-02-01T02:38:19;4.70;99.90
3860;DHT22;1945;52.036;8.614;2023-02-01T02:40:51;5.00;99.90
3860;DHT22;1945;52.036;8.614;2023-02-01T02:43:21;4.40;99.90
3860;DHT22;1945;52.036;8.614;2023-02-01T02:46:11;5.10;99.90
3860;DHT22;1945;52.036;8.614;2023-02-01T02:49:00;4.90;99.90
3860;DHT22;1945;52.036;8.614;2023-02-01T02:51:33;4.30;99.90
3860;DHT22;1945;52.036;8.614;2023-02-01T02:54:23;4.60;99.90
3860;DHT22;1945;52.036;8.614;2023-02-01T02:57:13;4.30;99.90
3860;DHT22;1945;52.036;8.614;2023-02-01T03:00:00;5.20;99.90
3860;DHT22;1945;52.036;8.614;2023-02-01T03:02:47;5.00;99.90
3860;DHT22;1945;52.036;8.614;2023-02-01T03:05:33;5.10;99.90
3860;DHT22;1945;52.036;8.614;2023-02-01T03:08:10;4.50;99.90
3860;DHT22;1945;52.036;8.614;2023-02-01T03:10:44;4.30;99.90
3860;DHT22;1945;52.036;8.614;2023-02-01T03:13:19;4.50;99.90
3860;DHT22;1945;52.036;8.614;2023-02-01T03:15:51;4.40;99.90
3860;DHT22;1945;52.036;8.614;2023-02-01T03:18:25;5.00;99.90
3860;DHT22;1945;52.036;8.614;2023-02-01T03:20:53;5.00;99.90
3860;DHT22;1945;52.036;8.614;2023-02-01T03:23:25;4.90;87.80
3860;DHT22;1945;52.036;8.614;2023-02-01T03:25:55;5.30;99.90
3860;DHT22;1945;52.036;8.614;2023-02-01T03:28:23;5.20;99.90
3860;DHT22;1945;52.036;8.614;2023-02-01T03:30:52;5.30;97.90
3860;DHT22;1945;52.036;8.614;2023-02-01T03:33:21;4.80;25.50
3860;DHT22;1945;52.036;8.614;2023-02-01T03:35:55;5.50;4.20
3860;DHT22;1945;52.036;8.614;2023-02-01T03:38:29;5.40;1.00
3860;DHT22;1945;52.036;8.614;2023-02-01T03:41:03;4.60;1.00
3860;DHT22;1945;52.036;8.614;2023-02-01T03:43:37;5.20;1.00
3860;DHT22;1945;52.036;8.614;2023-02-01T03:46:11;4.50;1.00
3860;DHT22;1945;52.036;8.614;2023-02-01T03:48:39;4.80;1.00
3860;DHT22;1945;52.036;8.614;2023-02-01T03:51:07;4.70;1.00
3860;DHT22;1945;52.036;8.614;2023-02-01T03:53:36;5.00;1.00
3860;DHT22;1945;52.036;8.614;2023-02-01T03:56:06;4.90;1.00
3860;DHT22;1945;52.036;8.614;2023-02-01T03:58:33;5.00;1.00
3860;DHT22;1945;52.036;8.614;2023-02-01T04:01:00;5.50;1.00
3860;DHT22;1945;52.036;8.614;2023-02-01T04:03:27;5.00;1.00
3860;DHT22;1945;52.036;8.614;2023-02-01T04:05:54;5.10;1.00
3860;DHT22;1945;52.036;8.614;2023-02-01T04:08:22;5.10;1.00
3860;DHT22;1945;52.036;8.614;2023-02-01T04:10:50;5.50;1.00
3860;DHT22;1945;52.036;8.614;2023-02-01T04:13:17;5.10;1.00
3860;DHT22;1945;52.036;8.614;2023-02-01T04:15:44;5.40;1.00
3860;DHT22;1945;52.036;8.614;2023-02-01T04:18:11;5.60;1.00
3860;DHT22;1945;52.036;8.614;2023-02-01T04:20:37;5.70;1.00
3860;DHT22;1945;52.036;8.614;2023-02-01T04:23:04;5.20;1.00
3860;DHT22;1945;52.036;8.614;2023-02-01T04:25:31;5.50;1.00
3860;DHT22;1945;52.036;8.614;2023-02-01T04:27:59;5.20;1.00
3860;DHT22;1945;52.036;8.614;2023-02-01T04:30:25;5.20;1.00
3860;DHT22;1945;52.036;8.614;2023-02-01T04:32:52;5.70;1.00
3860;DHT22;1945;52.036;8.614;2023-02-01T04:35:19;5.60;1.00
3860;DHT22;1945;52.036;8.614;2023-02-01T04:37:45;5.60;1.00
3860;DHT22;1945;52.036;8.614;2023-02-01T04:40:12;5.20;1.00
3860;DHT22;1945;52.036;8.614;2023-02-01T04:42:39;5.70;1.00
3860;DHT22;1945;52.036;8.614;2023-02-01T04:45:08;5.60;1.00
3860;DHT22;1945;52.036;8.614;2023-02-01T04:47:35;5.10;1.00
3860;DHT22;1945;52.036;8.614;2023-02-01T04:50:01;5.60;1.00
3860;DHT22;1945;52.036;8.614;2023-02-01T04:52:28;5.10;1.00
3860;DHT22;1945;52.036;8.614;2023-02-01T04:54:55;5.60;99.90
3860;DHT22;1945;52.036;8.614;2023-02-01T04:57:23;5.60;99.90
3860;DHT22;1945;52.036;8.614;2023-02-01T04:59:49;5.50;99.90
3860;DHT22;1945;52.036;8.614;2023-02-01T05:02:17;5.40;1.00
3860;DHT22;1945;52.036;8.614;2023-02-01T05:04:44;5.40;1.00
3860;DHT22;1945;52.036;8.614;2023-02-01T05:07:10;4.90;1.00
3860;DHT22;1945;52.036;8.614;2023-02-01T05:09:37;5.40;1.00
3860;DHT22;1945;52.036;8.614;2023-02-01T05:12:04;4.90;1.00
3860;DHT22;1945;52.036;8.614;2023-02-01T05:14:49;4.90;1.00
3860;DHT22;1945;52.036;8.614;2023-02-01T05:17:17;4.90;1.00
3860;DHT22;1945;52.036;8.614;2023-02-01T05:19:43;4.90;1.00
3860;DHT22;1945;52.036;8.614;2023-02-01T05:22:10;5.20;1.00
3860;DHT22;1945;52.036;8.614;2023-02-01T05:24:36;5.20;1.00
3860;DHT22;1945;52.036;8.614;2023-02-01T05:27:03;4.80;1.00
3860;DHT22;1945;52.036;8.614;2023-02-01T05:29:30;4.80;1.00
3860;DHT22;1945;52.036;8.614;2023-02-01T05:31:57;5.30;1.00
3860;DHT22;1945;52.036;8.614;2023-02-01T05:34:25;4.80;1.00
3860;DHT22;1945;52.036;8.614;2023-02-01T05:36:51;5.30;1.00
3860;DHT22;1945;52.036;8.614;2023-02-01T05:39:18;4.80;1.00
3860;DHT22;1945;52.036;8.614;2023-02-01T05:41:45;4.80;1.00
3860;DHT22;1945;52.036;8.614;2023-02-01T05:44:12;5.20;1.00
3860;DHT22;1945;52.036;8.614;2023-02-01T05:46:38;5.20;1.00
3860;DHT22;1945;52.036;8.614;2023-02-01T05:49:05;4.80;1.00
3860;DHT22;1945;52.036;8.614;2023-02-01T05:51:33;5.30;1.00
3860;DHT22;1945;52.036;8.614;2023-02-01T05:54:00;4.80;1.00
3860;DHT22;1945;52.036;8.614;2023-02-01T05:56:27;4.80;1.00
3860;DHT22;1945;52.036;8.614;2023-02-01T05:58:53;5.20;1.00
3860;DHT22;1945;52.036;8.614;2023-02-01T06:01:20;4.80;1.00
3860;DHT22;1945;52.036;8.614;2023-02-01T06:03:47;4.50;1.00
3860;DHT22;1945;52.036;8.614;2023-02-01T06:06:13;4.90;1.00
3860;DHT22;1945;52.036;8.614;2023-02-01T06:08:41;4.40;1.00
3860;DHT22;1945;52.036;8.614;2023-02-01T06:11:08;5.30;1.00
3860;DHT22;1945;52.036;8.614;2023-02-01T06:13:35;4.30;1.00
3860;DHT22;1945;52.036;8.614;2023-02-01T06:16:04;4.90;1.00
3860;DHT22;1945;52.036;8.614;2023-02-01T06:18:33;5.10;1.00
3860;DHT22;1945;52.036;8.614;2023-02-01T06:21:00;5.40;1.00
3860;DHT22;1945;52.036;8.614;2023-02-01T06:23:27;5.10;1.00
3860;DHT22;1945;52.036;8.614;2023-02-01T06:26:00;5.20;1.00
3860;DHT22;1945;52.036;8.614;2023-02-01T06:28:27;5.10;1.00
3860;DHT22;1945;52.036;8.614;2023-02-01T06:30:54;4.90;1.00
3860;DHT22;1945;52.036;8.614;2023-02-01T06:33:21;5.50;1.00
3860;DHT22;1945;52.036;8.614;2023-02-01T06:35:48;5.20;1.00
3860;DHT22;1945;52.036;8.614;2023-02-01T06:38:14;5.60;99.90
3860;DHT22;1945;52.036;8.614;2023-02-01T06:40:41;4.60;99.90
3860;DHT22;1945;52.036;8.614;2023-02-01T06:43:09;5.60;99.90
3860;DHT22;1945;52.036;8.614;2023-02-01T06:45:36;4.90;99.90
3860;DHT22;1945;52.036;8.614;2023-02-01T06:48:04;4.70;99.90
3860;DHT22;1945;52.036;8.614;2023-02-01T06:50:30;5.30;99.90
3860;DHT22;1945;52.036;8.614;2023-02-01T06:52:57;5.60;99.90
3860;DHT22;1945;52.036;8.614;2023-02-01T06:55:24;4.70;99.90
3860;DHT22;1945;52.036;8.614;2023-02-01T06:57:53;5.40;99.90
3860;DHT22;1945;52.036;8.614;2023-02-01T07:00:22;5.20;99.90
3860;DHT22;1945;52.036;8.614;2023-02-01T07:02:49;5.30;99.90
3860;DHT22;1945;52.036;8.614;2023-02-01T07:05:16;5.00;99.90
3860;DHT22;1945;52.036;8.614;2023-02-01T07:07:43;5.00;99.90
3860;DHT22;1945;52.036;8.614;2023-02-01T07:10:10;5.70;99.90
3860;DHT22;1945;52.036;8.614;2023-02-01T07:12:37;5.30;99.90
3860;DHT22;1945;52.036;8.614;2023-02-01T07:15:05;5.40;99.90
3860;DHT22;1945;52.036;8.614;2023-02-01T07:17:33;5.20;99.90
3860;DHT22;1945;52.036;8.614;2023-02-01T07:20:00;4.70;99.90
3860;DHT22;1945;52.036;8.614;2023-02-01T07:22:27;5.00;99.90
3860;DHT22;1945;52.036;8.614;2023-02-01T07:24:53;4.70;99.90
3860;DHT22;1945;52.036;8.614;2023-02-01T07:27:20;5.00;99.90
3860;DHT22;1945;52.036;8.614;2023-02-01T07:29:50;5.40;99.90
3860;DHT22;1945;52.036;8.614;2023-02-01T07:32:17;5.20;99.90
3860;DHT22;1945;52.036;8.614;2023-02-01T07:34:45;5.30;99.90
3860;DHT22;1945;52.036;8.614;2023-02-01T07:37:11;5.00;99.90
3860;DHT22;1945;52.036;8.614;2023-02-01T07:39:38;4.70;99.90
3860;DHT22;1945;52.036;8.614;2023-02-01T07:42:05;5.30;99.90
3860;DHT22;1945;52.036;8.614;2023-02-01T07:44:32;5.40;99.90
3860;DHT22;1945;52.036;8.614;2023-02-01T07:46:59;5.80;99.90
3860;DHT22;1945;52.036;8.614;2023-02-01T07:49:25;5.80;99.90
3860;DHT22;1945;52.036;8.614;2023-02-01T07:51:53;5.40;99.90
3860;DHT22;1945;52.036;8.614;2023-02-01T07:54:20;5.30;99.90
3860;DHT22;1945;52.036;8.614;2023-02-01T07:56:47;4.90;99.90
3860;DHT22;1945;52.036;8.614;2023-02-01T07:59:14;5.40;99.90
3860;DHT22;1945;52.036;8.614;2023-02-01T08:01:41;5.80;99.90
3860;DHT22;1945;52.036;8.614;2023-02-01T08:04:10;5.80;70.50
3860;DHT22;1945;52.036;8.614;2023-02-01T08:06:37;5.20;99.90
3860;DHT22;1945;52.036;8.614;2023-02-01T08:09:06;5.00;99.90
3860;DHT22;1945;52.036;8.614;2023-02-01T08:11:34;5.50;99.90
3860;DHT22;1945;52.036;8.614;2023-02-01T08:14:01;4.90;99.90
3860;DHT22;1945;52.036;8.614;2023-02-01T08:16:28;5.50;99.90
3860;DHT22;1945;52.036;8.614;2023-02-01T08:18:55;5.10;99.90
3860;DHT22;1945;52.036;8.614;2023-02-01T08:21:24;5.50;99.90
3860;DHT22;1945;52.036;8.614;2023-02-01T08:23:51;5.50;99.90
3860;DHT22;1945;52.036;8.614;2023-02-01T08:26:21;6.20;99.90
3860;DHT22;1945;52.036;8.614;2023-02-01T08:28:50;5.70;99.90
3860;DHT22;1945;52.036;8.614;2023-02-01T08:31:19;5.60;99.90
3860;DHT22;1945;52.036;8.614;2023-02-01T08:33:49;6.00;99.90
3860;DHT22;1945;52.036;8.614;2023-02-01T08:36:17;5.70;89.00
3860;DHT22;1945;52.036;8.614;2023-02-01T08:38:44;6.10;40.10
3860;DHT22;1945;52.036;8.614;2023-02-01T08:41:13;5.90;47.30
3860;DHT22;1945;52.036;8.614;2023-02-01T08:43:41;6.00;95.30
3860;DHT22;1945;52.036;8.614;2023-02-01T08:46:09;5.80;99.90
3860;DHT22;1945;52.036;8.614;2023-02-01T08:48:36;6.20;6.20
3860;DHT22;1945;52.036;8.614;2023-02-01T08:51:05;6.20;1.00
3860;DHT22;1945;52.036;8.614;2023-02-01T08:53:31;5.80;1.00
3860;DHT22;1945;52.036;8.614;2023-02-01T08:55:59;6.20;1.00
3860;DHT22;1945;52.036;8.614;2023-02-01T08:58:26;6.20;8.90
3860;DHT22;1945;52.036;8.614;2023-02-01T09:00:54;6.10;62.20
3860;DHT22;1945;52.036;8.614;2023-02-01T09:03:21;6.30;1.00
3860;DHT22;1945;52.036;8.614;2023-02-01T09:05:48;5.70;1.00
3860;DHT22;1945;52.036;8.614;2023-02-01T09:08:14;5.40;1.00
3860;DHT22;1945;52.036;8.614;2023-02-01T09:10:41;6.00;1.00
3860;DHT22;1945;52.036;8.614;2023-02-01T09:13:09;6.50;1.00
3860;DHT22;1945;52.036;8.614;2023-02-01T09:15:37;5.70;1.00
3860;DHT22;1945;52.036;8.614;2023-02-01T09:18:05;6.60;1.00
3860;DHT22;1945;52.036;8.614;2023-02-01T09:20:32;6.30;1.00
3860;DHT22;1945;52.036;8.614;2023-02-01T09:22:58;5.80;1.00
3860;DHT22;1945;52.036;8.614;2023-02-01T09:25:25;5.80;1.00
3860;DHT22;1945;52.036;8.614;2023-02-01T09:27:52;6.20;1.00
3860;DHT22;1945;52.036;8.614;2023-02-01T09:30:19;6.40;1.00
3860;DHT22;1945;52.036;8.614;2023-02-01T09:32:46;6.50;1.00
3860;DHT22;1945;52.036;8.614;2023-02-01T09:35:14;6.50;1.00
3860;DHT22;1945;52.036;8.614;2023-02-01T09:37:41;6.30;1.00
3860;DHT22;1945;52.036;8.614;2023-02-01T09:40:12;6.00;1.00
3860;DHT22;1945;52.036;8.614;2023-02-01T09:42:54;6.30;1.00
3860;DHT22;1945;52.036;8.614;2023-02-01T09:45:32;6.30;1.00
3860;DHT22;1945;52.036;8.614;2023-02-01T09:48:05;6.70;1.00
3860;DHT22;1945;52.036;8.614;2023-02-01T09:50:39;6.80;1.00
3860;DHT22;1945;52.036;8.614;2023-02-01T09:53:12;6.80;1.00
3860;DHT22;1945;52.036;8.614;2023-02-01T09:55:42;6.50;1.00
3860;DHT22;1945;52.036;8.614;2023-02-01T09:58:13;6.80;1.00
3860;DHT22;1945;52.036;8.614;2023-02-01T10:00:44;6.30;1.00
3860;DHT22;1945;52.036;8.614;2023-02-01T10:03:14;6.90;1.00
3860;DHT22;1945;52.036;8.614;2023-02-01T10:06:07;7.00;1.00
3860;DHT22;1945;52.036;8.614;2023-02-01T10:08:47;6.50;1.00
3860;DHT22;1945;52.036;8.614;2023-02-01T10:11:25;6.90;1.00
3860;DHT22;1945;52.036;8.614;2023-02-01T10:13:59;6.50;1.00
3860;DHT22;1945;52.036;8.614;2023-02-01T10:16:37;6.60;1.00
3860;DHT22;1945;52.036;8.614;2023-02-01T10:19:22;6.60;1.00
3860;DHT22;1945;52.036;8.614;2023-02-01T10:21:54;6.70;1.00
3860;DHT22;1945;52.036;8.614;2023-02-01T10:24:37;7.20;1.00
3860;DHT22;1945;52.036;8.614;2023-02-01T10:27:13;7.20;1.00
3860;DHT22;1945;52.036;8.614;2023-02-01T10:29:42;6.70;1.00
3860;DHT22;1945;52.036;8.614;2023-02-01T10:32:14;7.00;1.00
3860;DHT22;1945;52.036;8.614;2023-02-01T10:34:42;7.10;1.00
3860;DHT22;1945;52.036;8.614;2023-02-01T10:37:20;7.10;1.00
3860;DHT22;1945;52.036;8.614;2023-02-01T10:39:49;7.20;1.00
3860;DHT22;1945;52.036;8.614;2023-02-01T10:42:21;7.10;1.00
3860;DHT22;1945;52.036;8.614;2023-02-01T10:44:48;6.60;1.00
3860;DHT22;1945;52.036;8.614;2023-02-01T10:47:16;6.40;1.00
3860;DHT22;1945;52.036;8.614;2023-02-01T10:49:47;6.60;1.00
3860;DHT22;1945;52.036;8.614;2023-02-01T10:52:19;7.10;1.00
3860;DHT22;1945;52.036;8.614;2023-02-01T10:54:48;7.00;1.00
3860;DHT22;1945;52.036;8.614;2023-02-01T10:57:21;7.10;1.00
3860;DHT22;1945;52.036;8.614;2023-02-01T10:59:49;7.10;1.00
3860;DHT22;1945;52.036;8.614;2023-02-01T11:02:20;6.30;1.00
3860;DHT22;1945;52.036;8.614;2023-02-01T11:04:59;6.90;1.00
3860;DHT22;1945;52.036;8.614;2023-02-01T11:07:29;6.70;1.00
3860;DHT22;1945;52.036;8.614;2023-02-01T11:09:56;7.20;1.00
3860;DHT22;1945;52.036;8.614;2023-02-01T11:12:29;7.10;1.00
3860;DHT22;1945;52.036;8.614;2023-02-01T11:15:11;7.00;1.00
3860;DHT22;1945;52.036;8.614;2023-02-01T11:17:40;6.30;1.00
3860;DHT22;1945;52.036;8.614;2023-02-01T11:20:15;6.60;1.00
3860;DHT22;1945;52.036;8.614;2023-02-01T11:22:47;6.30;1.00
3860;DHT22;1945;52.036;8.614;2023-02-01T11:25:16;7.10;1.00
3860;DHT22;1945;52.036;8.614;2023-02-01T11:27:43;7.20;1.00
3860;DHT22;1945;52.036;8.614;2023-02-01T11:30:15;7.20;99.90
3860;DHT22;1945;52.036;8.614;2023-02-01T11:32:43;6.80;1.00
3860;DHT22;1945;52.036;8.614;2023-02-01T11:35:14;6.70;99.90
3860;DHT22;1945;52.036;8.614;2023-02-01T11:37:42;7.20;1.00
3860;DHT22;1945;52.036;8.614;2023-02-01T11:40:25;6.70;99.90
3860;DHT22;1945;52.036;8.614;2023-02-01T11:42:57;6.70;99.90
3860;DHT22;1945;52.036;8.614;2023-02-01T11:45:26;6.70;99.90
3860;DHT22;1945;52.036;8.614;2023-02-01T11:47:55;6.80;99.90
3860;DHT22;1945;52.036;8.614;2023-02-01T11:50:28;6.70;99.90
3860;DHT22;1945;52.036;8.614;2023-02-01T11:53:24;6.70;1.00
3860;DHT22;1945;52.036;8.614;2023-02-01T11:56:05;6.70;1.00
3860;DHT22;1945;52.036;8.614;2023-02-01T11:59:04;6.90;1.00
3860;DHT22;1945;52.036;8.614;2023-02-01T12:04:56;6.50;1.00
3860;DHT22;1945;52.036;8.614;2023-02-01T12:07:39;6.50;1.00
3860;DHT22;1945;52.036;8.614;2023-02-01T12:10:18;6.80;88.30
3860;DHT22;1945;52.036;8.614;2023-02-01T12:12:53;6.60;92.00
3860;DHT22;1945;52.036;8.614;2023-02-01T12:15:37;6.70;99.90
3860;DHT22;1945;52.036;8.614;2023-02-01T12:21:46;6.00;1.00
3860;DHT22;1945;52.036;8.614;2023-02-01T12:24:35;6.00;1.00
3860;DHT22;1945;52.036;8.614;2023-02-01T12:27:20;6.30;1.00
3860;DHT22;1945;52.036;8.614;2023-02-01T12:30:10;6.30;1.00
3860;DHT22;1945;52.036;8.614;2023-02-01T12:33:00;6.40;1.00
3860;DHT22;1945;52.036;8.614;2023-02-01T12:35:42;6.30;1.00
3860;DHT22;1945;52.036;8.614;2023-02-01T12:38:20;6.20;1.00
3860;DHT22;1945;52.036;8.614;2023-02-01T12:41:02;6.40;1.00
3860;DHT22;1945;52.036;8.614;2023-02-01T12:43:38;6.40;1.00
3860;DHT22;1945;52.036;8.614;2023-02-01T12:46:10;6.30;1.00
3860;DHT22;1945;52.036;8.614;2023-02-01T12:48:44;6.10;1.00
3860;DHT22;1945;52.036;8.614;2023-02-01T12:51:17;5.70;12.10
3860;DHT22;1945;52.036;8.614;2023-02-01T12:53:48;6.20;40.20
3860;DHT22;1945;52.036;8.614;2023-02-01T12:56:21;6.10;14.30
3860;DHT22;1945;52.036;8.614;2023-02-01T12:58:50;6.00;55.30
3860;DHT22;1945;52.036;8.614;2023-02-01T13:01:22;5.90;99.90
3860;DHT22;1945;52.036;8.614;2023-02-01T13:03:55;5.90;99.90
3860;DHT22;1945;52.036;8.614;2023-02-01T13:06:28;6.00;99.90
3860;DHT22;1945;52.036;8.614;2023-02-01T13:09:00;6.00;99.90
3860;DHT22;1945;52.036;8.614;2023-02-01T13:11:31;6.10;99.90
3860;DHT22;1945;52.036;8.614;2023-02-01T13:14:02;5.90;99.90
3860;DHT22;1945;52.036;8.614;2023-02-01T13:16:34;5.60;99.90
3860;DHT22;1945;52.036;8.614;2023-02-01T13:19:09;5.60;99.90
3860;DHT22;1945;52.036;8.614;2023-02-01T13:21:42;6.00;99.90
3860;DHT22;1945;52.036;8.614;2023-02-01T13:24:29;6.20;99.90
3860;DHT22;1945;52.036;8.614;2023-02-01T13:26:57;6.10;99.90
3860;DHT22;1945;52.036;8.614;2023-02-01T13:29:24;6.20;99.90
3860;DHT22;1945;52.036;8.614;2023-02-01T13:32:00;6.20;99.90
3860;DHT22;1945;52.036;8.614;2023-02-01T13:34:53;6.10;99.90
3860;DHT22;1945;52.036;8.614;2023-02-01T13:37:45;6.00;99.90
3860;DHT22;1945;52.036;8.614;2023-02-01T13:40:30;5.70;99.90
3860;DHT22;1945;52.036;8.614;2023-02-01T13:43:01;5.70;99.90
3860;DHT22;1945;52.036;8.614;2023-02-01T13:45:30;6.20;99.90
3860;DHT22;1945;52.036;8.614;2023-02-01T13:48:01;6.20;99.90
3860;DHT22;1945;52.036;8.614;2023-02-01T13:50:31;6.30;99.90
3860;DHT22;1945;52.036;8.614;2023-02-01T13:53:01;6.30;99.90
3860;DHT22;1945;52.036;8.614;2023-02-01T13:55:33;6.40;99.90
3860;DHT22;1945;52.036;8.614;2023-02-01T13:58:15;6.40;99.90
3860;DHT22;1945;52.036;8.614;2023-02-01T14:00:43;6.00;1.00
3860;DHT22;1945;52.036;8.614;2023-02-01T14:03:17;6.50;5.50
3860;DHT22;1945;52.036;8.614;2023-02-01T14:06:14;6.10;1.00
3860;DHT22;1945;52.036;8.614;2023-02-01T14:11:40;6.20;1.00
3860;DHT22;1945;52.036;8.614;2023-02-01T14:17:33;6.10;1.00
3860;DHT22;1945;52.036;8.614;2023-02-01T14:23:23;6.10;1.00
3860;DHT22;1945;52.036;8.614;2023-02-01T14:26:10;6.10;1.00
3860;DHT22;1945;52.036;8.614;2023-02-01T14:28:41;6.60;1.00
3860;DHT22;1945;52.036;8.614;2023-02-01T14:31:43;6.50;1.00
3860;DHT22;1945;52.036;8.614;2023-02-01T14:34:18;5.80;1.00
3860;DHT22;1945;52.036;8.614;2023-02-01T14:36:51;5.70;1.00
3860;DHT22;1945;52.036;8.614;2023-02-01T14:39:26;6.20;99.90
3860;DHT22;1945;52.036;8.614;2023-02-01T14:41:57;6.10;99.90
3860;DHT22;1945;52.036;8.614;2023-02-01T14:44:28;6.20;99.90
3860;DHT22;1945;52.036;8.614;2023-02-01T14:50:13;6.00;1.00
3860;DHT22;1945;52.036;8.614;2023-02-01T14:52:46;5.50;1.00
3860;DHT22;1945;52.036;8.614;2023-02-01T14:55:17;6.00;1.00
3860;DHT22;1945;52.036;8.614;2023-02-01T14:57:46;5.80;1.00
3860;DHT22;1945;52.036;8.614;2023-02-01T15:00:21;5.90;1.00
3860;DHT22;1945;52.036;8.614;2023-02-01T15:02:48;5.50;1.00
3860;DHT22;1945;52.036;8.614;2023-02-01T15:05:32;5.40;1.00
3860;DHT22;1945;52.036;8.614;2023-02-01T15:08:05;5.80;1.00
3860;DHT22;1945;52.036;8.614;2023-02-01T15:10:42;5.90;1.00
3860;DHT22;1945;52.036;8.614;2023-02-01T15:13:19;5.80;1.00
3860;DHT22;1945;52.036;8.614;2023-02-01T15:16:00;6.00;1.00
3860;DHT22;1945;52.036;8.614;2023-02-01T15:18:26;6.10;1.00
3860;DHT22;1945;52.036;8.614;2023-02-01T15:20:57;6.10;1.00
3860;DHT22;1945;52.036;8.614;2023-02-01T15:23:23;6.00;1.00
3860;DHT22;1945;52.036;8.614;2023-02-01T15:25:51;5.40;1.00
3860;DHT22;1945;52.036;8.614;2023-02-01T15:28:18;6.20;1.00
3860;DHT22;1945;52.036;8.614;2023-02-01T15:30:53;6.40;1.00
3860;DHT22;1945;52.036;8.614;2023-02-01T15:33:20;6.40;1.00
3860;DHT22;1945;52.036;8.614;2023-02-01T15:35:48;5.90;1.00
3860;DHT22;1945;52.036;8.614;2023-02-01T15:41:05;6.30;99.90
3860;DHT22;1945;52.036;8.614;2023-02-01T15:43:36;6.00;99.90
3860;DHT22;1945;52.036;8.614;2023-02-01T15:46:08;5.80;1.00
3860;DHT22;1945;52.036;8.614;2023-02-01T15:48:37;6.40;1.00
3860;DHT22;1945;52.036;8.614;2023-02-01T15:51:05;6.40;1.00
3860;DHT22;1945;52.036;8.614;2023-02-01T15:53:32;6.30;1.00
3860;DHT22;1945;52.036;8.614;2023-02-01T15:56:01;6.30;1.00
3860;DHT22;1945;52.036;8.614;2023-02-01T15:58:31;5.80;1.00
3860;DHT22;1945;52.036;8.614;2023-02-01T16:01:00;6.30;1.00
3860;DHT22;1945;52.036;8.614;2023-02-01T16:03:36;6.20;1.00
3860;DHT22;1945;52.036;8.614;2023-02-01T16:06:06;6.20;1.00
3860;DHT22;1945;52.036;8.614;2023-02-01T16:08:33;5.80;1.00
3860;DHT22;1945;52.036;8.614;2023-02-01T16:11:20;6.30;1.00
3860;DHT22;1945;52.036;8.614;2023-02-01T16:13:49;5.80;1.00
3860;DHT22;1945;52.036;8.614;2023-02-01T16:16:16;6.20;1.00
3860;DHT22;1945;52.036;8.614;2023-02-01T16:18:42;6.20;1.00
3860;DHT22;1945;52.036;8.614;2023-02-01T16:21:10;6.20;1.00
3860;DHT22;1945;52.036;8.614;2023-02-01T16:23:37;5.70;1.00
3860;DHT22;1945;52.036;8.614;2023-02-01T16:26:04;6.10;1.00
3860;DHT22;1945;52.036;8.614;2023-02-01T16:28:32;6.10;1.00
3860;DHT22;1945;52.036;8.614;2023-02-01T16:31:00;5.70;1.00
3860;DHT22;1945;52.036;8.614;2023-02-01T16:33:27;6.20;1.00
3860;DHT22;1945;52.036;8.614;2023-02-01T16:35:56;6.20;1.00
3860;DHT22;1945;52.036;8.614;2023-02-01T16:38:25;6.40;99.90
3860;DHT22;1945;52.036;8.614;2023-02-01T16:40:52;5.90;99.90
3860;DHT22;1945;52.036;8.614;2023-02-01T16:43:20;5.90;1.00
3860;DHT22;1945;52.036;8.614;2023-02-01T16:45:49;6.40;99.90
3860;DHT22;1945;52.036;8.614;2023-02-01T16:48:19;6.40;99.90
3860;DHT22;1945;52.036;8.614;2023-02-01T16:50:49;5.60;99.90
3860;DHT22;1945;52.036;8.614;2023-02-01T16:53:18;6.40;99.90
3860;DHT22;1945;52.036;8.614;2023-02-01T16:55:44;6.50;99.90
3860;DHT22;1945;52.036;8.614;2023-02-01T16:58:13;6.00;99.90
3860;DHT22;1945;52.036;8.614;2023-02-01T17:00:40;6.50;99.90
3860;DHT22;1945;52.036;8.614;2023-02-01T17:03:07;6.40;99.90
3860;DHT22;1945;52.036;8.614;2023-02-01T17:05:35;5.90;99.90
3860;DHT22;1945;52.036;8.614;2023-02-01T17:08:05;6.00;99.90
3860;DHT22;1945;52.036;8.614;2023-02-01T17:10:32;6.50;99.90
3860;DHT22;1945;52.036;8.614;2023-02-01T17:13:00;6.20;99.90
3860;DHT22;1945;52.036;8.614;2023-02-01T17:15:32;5.80;99.90
3860;DHT22;1945;52.036;8.614;2023-02-01T17:18:01;5.80;1.00
3860;DHT22;1945;52.036;8.614;2023-02-01T17:20:30;6.30;1.00
3860;DHT22;1945;52.036;8.614;2023-02-01T17:23:00;6.20;1.00